sensor_id;sensor_type;location;lat;lon;timestamp;P1;durP1;ratioP1;P2;durP2;ratioP2
70067;SDS011;57425;51.616;6.680;2023-07-22T00:00:44;10.35;;;3.65;;
70067;SDS011;57425;51.616;6.680;2023-07-22T00:03:10;7.32;;;4.18;;
70067;SDS011;57425;51.616;6.680;2023-07-22T00:05:36;9.48;;;3.92;;
70067;SDS011;57425;51.616;6.680;2023-07-22T00:08:02;8.65;;;3.97;;
70067;SDS011;57425;51.616;6.680;2023-07-22T00:10:27;15.02;;;4.05;;
70067;SDS011;57425;51.616;6.680;2023-07-22T00:12:53;8.55;;;4.03;;
70067;SDS011;57425;51.616;6.680;2023-07-22T00:15:19;6.75;;;3.90;;
70067;SDS011;57425;51.616;6.680;2023-07-22T00:17:45;6.35;;;3.88;;
70067;SDS011;57425;51.616;6.680;2023-07-22T00:20:11;7.60;;;4.32;;
70067;SDS011;57425;51.616;6.680;2023-07-22T00:22:37;9.05;;;4.35;;
70067;SDS011;57425;51.616;6.680;2023-07-22T00:25:05;9.63;;;4.22;;
70067;SDS011;57425;51.616;6.680;2023-07-22T00:27:41;7.80;;;3.88;;
70067;SDS011;57425;51.616;6.680;2023-07-22T00:30:07;8.63;;;4.35;;
70067;SDS011;57425;51.616;6.680;2023-07-22T00:32:33;7.68;;;4.13;;
70067;SDS011;57425;51.616;6.680;2023-07-22T00:35:02;6.70;;;4.53;;
70067;SDS011;57425;51.616;6.680;2023-07-22T00:37:31;12.98;;;4.70;;
70067;SDS011;57425;51.616;6.680;2023-07-22T00:39:57;9.25;;;4.53;;
70067;SDS011;57425;51.616;6.680;2023-07-22T00:42:23;8.43;;;4.82;;
70067;SDS011;57425;51.616;6.680;2023-07-22T00:44:49;8.95;;;4.47;;
70067;SDS011;57425;51.616;6.680;2023-07-22T00:47:15;8.52;;;4.30;;
70067;SDS011;57425;51.616;6.680;2023-07-22T00:49:42;6.97;;;3.85;;
70067;SDS011;57425;51.616;6.680;2023-07-22T00:52:09;8.55;;;4.50;;
70067;SDS011;57425;51.616;6.680;2023-07-22T00:54:34;9.25;;;4.75;;
70067;SDS011;57425;51.616;6.680;2023-07-22T00:57:00;8.00;;;4.25;;
70067;SDS011;57425;51.616;6.680;2023-07-22T00:59:26;7.65;;;4.43;;
70067;SDS011;57425;51.616;6.680;2023-07-22T01:01:53;8.15;;;3.90;;
70067;SDS011;57425;51.616;6.680;2023-07-22T01:04:19;8.98;;;4.57;;
70067;SDS011;57425;51.616;6.680;2023-07-22T01:06:47;10.15;;;4.38;;
70067;SDS011;57425;51.616;6.680;2023-07-22T01:09:14;7.32;;;4.20;;
70067;SDS011;57425;51.616;6.680;2023-07-22T01:11:40;9.02;;;4.32;;
70067;SDS011;57425;51.616;6.680;2023-07-22T01:14:05;8.80;;;4.78;;
70067;SDS011;57425;51.616;6.680;2023-07-22T01:16:33;9.35;;;4.43;;
70067;SDS011;57425;51.616;6.680;2023-07-22T01:18:59;7.93;;;4.18;;
70067;SDS011;57425;51.616;6.680;2023-07-22T01:21:25;7.15;;;3.72;;
70067;SDS011;57425;51.616;6.680;2023-07-22T01:23:51;7.20;;;4.07;;
70067;SDS011;57425;51.616;6.680;2023-07-22T01:26:17;18.83;;;4.47;;
70067;SDS011;57425;51.616;6.680;2023-07-22T01:28:44;8.43;;;3.70;;
70067;SDS011;57425;51.616;6.680;2023-07-22T01:31:10;11.70;;;3.40;;
70067;SDS011;57425;51.616;6.680;2023-07-22T01:33:35;6.07;;;3.55;;
70067;SDS011;57425;51.616;6.680;2023-07-22T01:36:03;9.77;;;3.55;;
70067;SDS011;57425;51.616;6.680;2023-07-22T01:38:29;11.18;;;4.03;;
70067;SDS011;57425;51.616;6.680;2023-07-22T01:40:56;7.78;;;4.18;;
70067;SDS011;57425;51.616;6.680;2023-07-22T01:43:22;7.07;;;3.80;;
70067;SDS011;57425;51.616;6.680;2023-07-22T01:45:47;7.28;;;4.18;;
70067;SDS011;57425;51.616;6.680;2023-07-22T01:48:13;8.82;;;3.85;;
70067;SDS011;57425;51.616;6.680;2023-07-22T01:50:38;10.02;;;4.05;;
70067;SDS011;57425;51.616;6.680;2023-07-22T01:53:04;8.13;;;3.67;;
70067;SDS011;57425;51.616;6.680;2023-07-22T01:55:30;9.00;;;4.10;;
70067;SDS011;57425;51.616;6.680;2023-07-22T01:57:57;10.88;;;3.72;;
70067;SDS011;57425;51.616;6.680;2023-07-22T02:00:23;6.53;;;3.42;;
70067;SDS011;57425;51.616;6.680;2023-07-22T02:02:49;8.10;;;3.63;;
70067;SDS011;57425;51.616;6.680;2023-07-22T02:05:15;7.57;;;4.00;;
70067;SDS011;57425;51.616;6.680;2023-07-22T02:07:41;7.15;;;4.00;;
70067;SDS011;57425;51.616;6.680;2023-07-22T02:10:07;9.63;;;4.38;;
70067;SDS011;57425;51.616;6.680;2023-07-22T02:12:33;7.97;;;4.10;;
70067;SDS011;57425;51.616;6.680;2023-07-22T02:14:59;11.15;;;4.10;;
70067;SDS011;57425;51.616;6.680;2023-07-22T02:17:24;9.98;;;4.65;;
70067;SDS011;57425;51.616;6.680;2023-07-22T02:19:50;6.65;;;3.35;;
70067;SDS011;57425;51.616;6.680;2023-07-22T02:22:15;9.10;;;4.18;;
70067;SDS011;57425;51.616;6.680;2023-07-22T02:24:41;7.47;;;3.28;;
70067;SDS011;57425;51.616;6.680;2023-07-22T02:27:07;6.43;;;4.13;;
70067;SDS011;57425;51.616;6.680;2023-07-22T02:29:35;6.90;;;3.80;;
70067;SDS011;57425;51.616;6.680;2023-07-22T02:32:01;9.77;;;4.32;;
70067;SDS011;57425;51.616;6.680;2023-07-22T02:34:27;7.88;;;3.65;;
70067;SDS011;57425;51.616;6.680;2023-07-22T02:36:53;8.77;;;3.63;;
70067;SDS011;57425;51.616;6.680;2023-07-22T02:39:18;6.93;;;4.20;;
70067;SDS011;57425;51.616;6.680;2023-07-22T02:41:44;6.32;;;3.45;;
70067;SDS011;57425;51.616;6.680;2023-07-22T02:44:10;8.48;;;4.45;;
70067;SDS011;57425;51.616;6.680;2023-07-22T02:46:35;10.77;;;4.38;;
70067;SDS011;57425;51.616;6.680;2023-07-22T02:49:01;8.20;;;4.53;;
70067;SDS011;57425;51.616;6.680;2023-07-22T02:51:26;6.93;;;4.15;;
70067;SDS011;57425;51.616;6.680;2023-07-22T02:53:52;7.32;;;3.63;;
70067;SDS011;57425;51.616;6.680;2023-07-22T02:56:18;15.15;;;4.40;;
70067;SDS011;57425;51.616;6.680;2023-07-22T02:58:43;7.57;;;3.55;;
70067;SDS011;57425;51.616;6.680;2023-07-22T03:01:09;11.45;;;4.22;;
70067;SDS011;57425;51.616;6.680;2023-07-22T03:03:35;7.70;;;4.38;;
70067;SDS011;57425;51.616;6.680;2023-07-22T03:06:02;10.10;;;4.78;;
70067;SDS011;57425;51.616;6.680;2023-07-22T03:08:28;7.03;;;3.70;;
70067;SDS011;57425;51.616;6.680;2023-07-22T03:10:54;23.55;;;4.47;;
70067;SDS011;57425;51.616;6.680;2023-07-22T03:13:20;8.63;;;4.40;;
70067;SDS011;57425;51.616;6.680;2023-07-22T03:15:46;6.97;;;3.70;;
70067;SDS011;57425;51.616;6.680;2023-07-22T03:18:12;12.65;;;4.95;;
70067;SDS011;57425;51.616;6.680;2023-07-22T03:20:38;9.02;;;4.63;;
70067;SDS011;57425;51.616;6.680;2023-07-22T03:23:04;11.15;;;4.32;;
70067;SDS011;57425;51.616;6.680;2023-07-22T03:25:31;7.35;;;4.30;;
70067;SDS011;57425;51.616;6.680;2023-07-22T03:27:59;7.90;;;4.32;;
70067;SDS011;57425;51.616;6.680;2023-07-22T03:30:30;8.57;;;4.60;;
70067;SDS011;57425;51.616;6.680;2023-07-22T03:32:56;11.20;;;4.55;;
70067;SDS011;57425;51.616;6.680;2023-07-22T03:35:22;9.20;;;4.10;;
70067;SDS011;57425;51.616;6.680;2023-07-22T03:37:48;7.95;;;3.75;;
70067;SDS011;57425;51.616;6.680;2023-07-22T03:40:13;8.60;;;5.07;;
70067;SDS011;57425;51.616;6.680;2023-07-22T03:42:44;8.38;;;4.43;;
70067;SDS011;57425;51.616;6.680;2023-07-22T03:45:17;5.15;;;3.53;;
70067;SDS011;57425;51.616;6.680;2023-07-22T03:47:44;11.23;;;3.67;;
70067;SDS011;57425;51.616;6.680;2023-07-22T03:50:10;7.13;;;4.10;;
70067;SDS011;57425;51.616;6.680;2023-07-22T03:52:36;9.73;;;3.97;;
70067;SDS011;57425;51.616;6.680;2023-07-22T03:55:02;7.68;;;4.05;;
70067;SDS011;57425;51.616;6.680;2023-07-22T03:57:30;16.70;;;5.28;;
70067;SDS011;57425;51.616;6.680;2023-07-22T03:59:56;6.50;;;3.25;;
70067;SDS011;57425;51.616;6.680;2023-07-22T04:02:22;8.10;;;3.30;;
70067;SDS011;57425;51.616;6.680;2023-07-22T04:07:16;6.35;;;3.55;;
70067;SDS011;57425;51.616;6.680;2023-07-22T04:09:42;11.25;;;4.13;;
70067;SDS011;57425;51.616;6.680;2023-07-22T04:12:10;9.45;;;3.78;;
70067;SDS011;57425;51.616;6.680;2023-07-22T04:14:35;9.98;;;4.28;;
70067;SDS011;57425;51.616;6.680;2023-07-22T04:17:01;8.68;;;3.97;;
70067;SDS011;57425;51.616;6.680;2023-07-22T04:19:29;12.10;;;5.03;;
70067;SDS011;57425;51.616;6.680;2023-07-22T04:21:55;10.30;;;3.55;;
70067;SDS011;57425;51.616;6.680;2023-07-22T04:24:20;10.20;;;4.20;;
70067;SDS011;57425;51.616;6.680;2023-07-22T04:26:46;11.52;;;4.18;;
70067;SDS011;57425;51.616;6.680;2023-07-22T04:29:11;8.68;;;4.15;;
70067;SDS011;57425;51.616;6.680;2023-07-22T04:31:39;9.15;;;4.03;;
70067;SDS011;57425;51.616;6.680;2023-07-22T04:34:04;6.75;;;4.25;;
70067;SDS011;57425;51.616;6.680;2023-07-22T04:36:31;10.70;;;3.97;;
70067;SDS011;57425;51.616;6.680;2023-07-22T04:38:57;8.35;;;3.70;;
70067;SDS011;57425;51.616;6.680;2023-07-22T04:41:23;8.65;;;4.28;;
70067;SDS011;57425;51.616;6.680;2023-07-22T04:43:49;8.32;;;4.38;;
70067;SDS011;57425;51.616;6.680;2023-07-22T04:46:16;7.47;;;4.00;;
70067;SDS011;57425;51.616;6.680;2023-07-22T04:48:42;6.85;;;3.95;;
70067;SDS011;57425;51.616;6.680;2023-07-22T04:51:07;8.25;;;4.47;;
70067;SDS011;57425;51.616;6.680;2023-07-22T04:53:33;7.15;;;3.75;;
70067;SDS011;57425;51.616;6.680;2023-07-22T04:55:59;8.55;;;4.07;;
70067;SDS011;57425;51.616;6.680;2023-07-22T04:58:25;8.85;;;4.03;;
70067;SDS011;57425;51.616;6.680;2023-07-22T05:00:51;10.43;;;3.83;;
70067;SDS011;57425;51.616;6.680;2023-07-22T05:03:17;8.52;;;4.40;;
70067;SDS011;57425;51.616;6.680;2023-07-22T05:05:44;8.93;;;3.70;;
70067;SDS011;57425;51.616;6.680;2023-07-22T05:08:10;7.95;;;4.07;;
70067;SDS011;57425;51.616;6.680;2023-07-22T05:10:38;9.90;;;4.35;;
70067;SDS011;57425;51.616;6.680;2023-07-22T05:13:04;7.78;;;3.72;;
70067;SDS011;57425;51.616;6.680;2023-07-22T05:15:30;10.85;;;4.32;;
70067;SDS011;57425;51.616;6.680;2023-07-22T05:17:56;10.30;;;4.85;;
70067;SDS011;57425;51.616;6.680;2023-07-22T05:20:22;7.97;;;3.90;;
70067;SDS011;57425;51.616;6.680;2023-07-22T05:22:48;7.03;;;3.75;;
70067;SDS011;57425;51.616;6.680;2023-07-22T05:25:14;9.00;;;4.15;;
70067;SDS011;57425;51.616;6.680;2023-07-22T05:27:40;8.85;;;4.03;;
70067;SDS011;57425;51.616;6.680;2023-07-22T05:30:06;13.70;;;4.10;;
70067;SDS011;57425;51.616;6.680;2023-07-22T05:32:34;11.07;;;3.67;;
70067;SDS011;57425;51.616;6.680;2023-07-22T05:35:00;6.25;;;3.70;;
70067;SDS011;57425;51.616;6.680;2023-07-22T05:37:30;8.23;;;3.50;;
70067;SDS011;57425;51.616;6.680;2023-07-22T05:39:57;9.45;;;4.50;;
70067;SDS011;57425;51.616;6.680;2023-07-22T05:42:24;7.97;;;3.60;;
70067;SDS011;57425;51.616;6.680;2023-07-22T05:44:49;8.65;;;4.68;;
70067;SDS011;57425;51.616;6.680;2023-07-22T05:47:15;10.70;;;4.53;;
70067;SDS011;57425;51.616;6.680;2023-07-22T05:49:40;18.27;;;4.18;;
70067;SDS011;57425;51.616;6.680;2023-07-22T05:52:06;9.90;;;4.78;;
70067;SDS011;57425;51.616;6.680;2023-07-22T05:54:32;5.90;;;3.78;;
70067;SDS011;57425;51.616;6.680;2023-07-22T05:56:58;7.80;;;3.95;;
70067;SDS011;57425;51.616;6.680;2023-07-22T05:59:24;9.68;;;3.80;;
70067;SDS011;57425;51.616;6.680;2023-07-22T06:01:50;6.60;;;3.75;;
70067;SDS011;57425;51.616;6.680;2023-07-22T06:04:16;13.98;;;4.63;;
70067;SDS011;57425;51.616;6.680;2023-07-22T06:06:41;9.25;;;4.07;;
70067;SDS011;57425;51.616;6.680;2023-07-22T06:09:07;10.75;;;4.97;;
70067;SDS011;57425;51.616;6.680;2023-07-22T06:11:32;7.57;;;3.90;;
70067;SDS011;57425;51.616;6.680;2023-07-22T06:13:58;10.60;;;4.07;;
70067;SDS011;57425;51.616;6.680;2023-07-22T06:16:24;7.88;;;3.55;;
70067;SDS011;57425;51.616;6.680;2023-07-22T06:18:49;10.88;;;3.90;;
70067;SDS011;57425;51.616;6.680;2023-07-22T06:21:15;10.00;;;4.38;;
70067;SDS011;57425;51.616;6.680;2023-07-22T06:23:41;9.35;;;4.53;;
70067;SDS011;57425;51.616;6.680;2023-07-22T06:26:06;12.35;;;4.18;;
70067;SDS011;57425;51.616;6.680;2023-07-22T06:28:32;15.82;;;4.40;;
70067;SDS011;57425;51.616;6.680;2023-07-22T06:30:57;9.20;;;4.07;;
70067;SDS011;57425;51.616;6.680;2023-07-22T06:33:23;11.90;;;4.50;;
70067;SDS011;57425;51.616;6.680;2023-07-22T06:35:49;13.63;;;5.57;;
70067;SDS011;57425;51.616;6.680;2023-07-22T06:38:14;10.05;;;4.28;;
70067;SDS011;57425;51.616;6.680;2023-07-22T06:40:40;15.15;;;4.68;;
70067;SDS011;57425;51.616;6.680;2023-07-22T06:43:05;7.22;;;3.75;;
70067;SDS011;57425;51.616;6.680;2023-07-22T06:45:31;9.52;;;4.93;;
70067;SDS011;57425;51.616;6.680;2023-07-22T06:47:58;12.65;;;4.30;;
70067;SDS011;57425;51.616;6.680;2023-07-22T06:50:24;14.68;;;5.15;;
70067;SDS011;57425;51.616;6.680;2023-07-22T06:52:50;9.07;;;4.32;;
70067;SDS011;57425;51.616;6.680;2023-07-22T06:55:16;9.27;;;4.88;;
70067;SDS011;57425;51.616;6.680;2023-07-22T06:57:41;7.82;;;3.90;;
70067;SDS011;57425;51.616;6.680;2023-07-22T07:00:07;10.68;;;5.15;;
70067;SDS011;57425;51.616;6.680;2023-07-22T07:02:35;9.75;;;4.45;;
70067;SDS011;57425;51.616;6.680;2023-07-22T07:05:01;11.13;;;5.07;;
70067;SDS011;57425;51.616;6.680;2023-07-22T07:07:26;9.77;;;4.07;;
70067;SDS011;57425;51.616;6.680;2023-07-22T07:09:52;11.00;;;4.53;;
70067;SDS011;57425;51.616;6.680;2023-07-22T07:12:18;13.75;;;5.63;;
70067;SDS011;57425;51.616;6.680;2023-07-22T07:14:43;6.68;;;3.85;;
70067;SDS011;57425;51.616;6.680;2023-07-22T07:17:09;9.23;;;4.13;;
70067;SDS011;57425;51.616;6.680;2023-07-22T07:19:35;11.52;;;4.50;;
70067;SDS011;57425;51.616;6.680;2023-07-22T07:22:00;9.60;;;4.70;;
70067;SDS011;57425;51.616;6.680;2023-07-22T07:24:26;7.47;;;3.92;;
70067;SDS011;57425;51.616;6.680;2023-07-22T07:26:52;8.73;;;4.38;;
70067;SDS011;57425;51.616;6.680;2023-07-22T07:29:18;13.98;;;4.63;;
70067;SDS011;57425;51.616;6.680;2023-07-22T07:31:43;15.77;;;4.88;;
70067;SDS011;57425;51.616;6.680;2023-07-22T07:34:09;8.13;;;4.05;;
70067;SDS011;57425;51.616;6.680;2023-07-22T07:36:35;11.02;;;4.18;;
70067;SDS011;57425;51.616;6.680;2023-07-22T07:39:00;11.50;;;4.72;;
70067;SDS011;57425;51.616;6.680;2023-07-22T07:41:26;13.82;;;4.60;;
70067;SDS011;57425;51.616;6.680;2023-07-22T07:43:53;9.15;;;4.43;;
70067;SDS011;57425;51.616;6.680;2023-07-22T07:46:25;7.28;;;3.90;;
70067;SDS011;57425;51.616;6.680;2023-07-22T07:48:55;7.95;;;3.60;;
70067;SDS011;57425;51.616;6.680;2023-07-22T07:51:24;17.63;;;4.47;;
70067;SDS011;57425;51.616;6.680;2023-07-22T07:53:51;9.63;;;4.20;;
70067;SDS011;57425;51.616;6.680;2023-07-22T07:56:18;11.00;;;4.53;;
70067;SDS011;57425;51.616;6.680;2023-07-22T07:58:45;21.27;;;4.85;;
70067;SDS011;57425;51.616;6.680;2023-07-22T08:01:12;6.75;;;4.30;;
70067;SDS011;57425;51.616;6.680;2023-07-22T08:03:38;12.00;;;4.88;;
70067;SDS011;57425;51.616;6.680;2023-07-22T08:06:08;7.72;;;3.40;;
70067;SDS011;57425;51.616;6.680;2023-07-22T08:08:35;11.35;;;4.07;;
70067;SDS011;57425;51.616;6.680;2023-07-22T08:11:02;6.07;;;3.72;;
70067;SDS011;57425;51.616;6.680;2023-07-22T08:13:30;10.48;;;4.15;;
70067;SDS011;57425;51.616;6.680;2023-07-22T08:15:57;7.78;;;4.78;;
70067;SDS011;57425;51.616;6.680;2023-07-22T08:18:23;6.07;;;3.38;;
70067;SDS011;57425;51.616;6.680;2023-07-22T08:20:50;10.70;;;4.50;;
70067;SDS011;57425;51.616;6.680;2023-07-22T08:23:17;9.25;;;3.40;;
70067;SDS011;57425;51.616;6.680;2023-07-22T08:25:43;8.45;;;3.90;;
70067;SDS011;57425;51.616;6.680;2023-07-22T08:28:09;7.82;;;3.45;;
70067;SDS011;57425;51.616;6.680;2023-07-22T08:30:35;6.75;;;3.05;;
70067;SDS011;57425;51.616;6.680;2023-07-22T08:33:02;5.30;;;3.15;;
70067;SDS011;57425;51.616;6.680;2023-07-22T08:35:28;5.25;;;3.10;;
70067;SDS011;57425;51.616;6.680;2023-07-22T08:37:53;5.57;;;3.25;;
70067;SDS011;57425;51.616;6.680;2023-07-22T08:40:19;6.20;;;3.70;;
70067;SDS011;57425;51.616;6.680;2023-07-22T08:42:45;6.93;;;3.33;;
70067;SDS011;57425;51.616;6.680;2023-07-22T08:45:13;8.65;;;3.58;;
70067;SDS011;57425;51.616;6.680;2023-07-22T08:47:44;6.38;;;3.28;;
70067;SDS011;57425;51.616;6.680;2023-07-22T08:50:15;8.52;;;4.55;;
70067;SDS011;57425;51.616;6.680;2023-07-22T08:52:44;5.85;;;3.53;;
70067;SDS011;57425;51.616;6.680;2023-07-22T08:55:11;5.35;;;3.05;;
70067;SDS011;57425;51.616;6.680;2023-07-22T08:57:38;5.18;;;3.30;;
70067;SDS011;57425;51.616;6.680;2023-07-22T09:00:04;6.65;;;3.63;;
70067;SDS011;57425;51.616;6.680;2023-07-22T09:02:34;8.57;;;3.13;;
70067;SDS011;57425;51.616;6.680;2023-07-22T09:05:00;10.93;;;3.58;;
70067;SDS011;57425;51.616;6.680;2023-07-22T09:07:27;7.28;;;3.80;;
70067;SDS011;57425;51.616;6.680;2023-07-22T09:09:54;5.88;;;3.55;;
70067;SDS011;57425;51.616;6.680;2023-07-22T09:12:22;6.00;;;3.10;;
70067;SDS011;57425;51.616;6.680;2023-07-22T09:14:48;8.52;;;3.50;;
70067;SDS011;57425;51.616;6.680;2023-07-22T09:17:15;4.82;;;3.28;;
70067;SDS011;57425;51.616;6.680;2023-07-22T09:19:41;4.05;;;2.50;;
70067;SDS011;57425;51.616;6.680;2023-07-22T09:22:07;6.68;;;3.20;;
70067;SDS011;57425;51.616;6.680;2023-07-22T09:24:33;7.07;;;3.47;;
70067;SDS011;57425;51.616;6.680;2023-07-22T09:26:59;5.43;;;3.22;;
70067;SDS011;57425;51.616;6.680;2023-07-22T09:29:35;6.82;;;3.35;;
70067;SDS011;57425;51.616;6.680;2023-07-22T09:32:02;5.35;;;2.90;;
70067;SDS011;57425;51.616;6.680;2023-07-22T09:34:29;4.50;;;2.90;;
70067;SDS011;57425;51.616;6.680;2023-07-22T09:36:55;6.88;;;2.63;;
70067;SDS011;57425;51.616;6.680;2023-07-22T09:39:23;4.10;;;2.33;;
70067;SDS011;57425;51.616;6.680;2023-07-22T09:41:49;7.20;;;3.40;;
70067;SDS011;57425;51.616;6.680;2023-07-22T09:44:15;6.00;;;2.65;;
70067;SDS011;57425;51.616;6.680;2023-07-22T09:46:41;5.45;;;3.03;;
70067;SDS011;57425;51.616;6.680;2023-07-22T09:49:11;4.60;;;2.40;;
70067;SDS011;57425;51.616;6.680;2023-07-22T09:51:38;5.68;;;3.42;;
70067;SDS011;57425;51.616;6.680;2023-07-22T09:54:05;8.30;;;2.83;;
70067;SDS011;57425;51.616;6.680;2023-07-22T09:56:32;7.40;;;2.78;;
70067;SDS011;57425;51.616;6.680;2023-07-22T09:59:08;5.70;;;2.85;;
70067;SDS011;57425;51.616;6.680;2023-07-22T10:01:41;3.90;;;1.75;;
70067;SDS011;57425;51.616;6.680;2023-07-22T10:04:11;4.18;;;2.50;;
70067;SDS011;57425;51.616;6.680;2023-07-22T10:06:40;6.10;;;2.17;;
70067;SDS011;57425;51.616;6.680;2023-07-22T10:09:08;4.93;;;1.77;;
70067;SDS011;57425;51.616;6.680;2023-07-22T10:11:36;1.85;;;0.90;;
70067;SDS011;57425;51.616;6.680;2023-07-22T10:14:04;3.53;;;2.08;;
70067;SDS011;57425;51.616;6.680;2023-07-22T10:16:30;2.60;;;1.42;;
70067;SDS011;57425;51.616;6.680;2023-07-22T10:18:58;4.35;;;2.28;;
70067;SDS011;57425;51.616;6.680;2023-07-22T10:21:25;4.13;;;2.10;;
70067;SDS011;57425;51.616;6.680;2023-07-22T10:23:51;6.88;;;1.75;;
70067;SDS011;57425;51.616;6.680;2023-07-22T10:26:17;4.95;;;2.03;;
70067;SDS011;57425;51.616;6.680;2023-07-22T10:28:44;4.20;;;1.80;;
70067;SDS011;57425;51.616;6.680;2023-07-22T10:31:12;3.47;;;1.60;;
70067;SDS011;57425;51.616;6.680;2023-07-22T10:33:38;4.35;;;1.38;;
70067;SDS011;57425;51.616;6.680;2023-07-22T10:36:06;6.20;;;1.65;;
70067;SDS011;57425;51.616;6.680;2023-07-22T10:38:33;5.70;;;1.67;;
70067;SDS011;57425;51.616;6.680;2023-07-22T10:41:00;3.10;;;1.95;;
70067;SDS011;57425;51.616;6.680;2023-07-22T10:45:55;4.10;;;1.85;;
70067;SDS011;57425;51.616;6.680;2023-07-22T10:48:25;7.00;;;1.75;;
70067;SDS011;57425;51.616;6.680;2023-07-22T10:50:54;2.20;;;1.30;;
70067;SDS011;57425;51.616;6.680;2023-07-22T10:56:13;5.32;;;1.85;;
70067;SDS011;57425;51.616;6.680;2023-07-22T11:04:20;2.58;;;1.25;;
70067;SDS011;57425;51.616;6.680;2023-07-22T11:12:00;3.58;;;1.50;;
70067;SDS011;57425;51.616;6.680;2023-07-22T11:14:33;1.98;;;1.25;;
70067;SDS011;57425;51.616;6.680;2023-07-22T11:17:03;2.08;;;1.15;;
70067;SDS011;57425;51.616;6.680;2023-07-22T11:19:29;3.70;;;1.75;;
70067;SDS011;57425;51.616;6.680;2023-07-22T11:21:56;2.47;;;1.48;;
70067;SDS011;57425;51.616;6.680;2023-07-22T11:24:23;3.72;;;1.20;;
70067;SDS011;57425;51.616;6.680;2023-07-22T11:26:49;1.35;;;1.25;;
70067;SDS011;57425;51.616;6.680;2023-07-22T11:29:16;2.75;;;1.50;;
70067;SDS011;57425;51.616;6.680;2023-07-22T11:31:45;2.63;;;1.45;;
70067;SDS011;57425;51.616;6.680;2023-07-22T11:34:13;2.55;;;1.85;;
70067;SDS011;57425;51.616;6.680;2023-07-22T11:36:44;3.75;;;1.85;;
70067;SDS011;57425;51.616;6.680;2023-07-22T11:39:11;5.05;;;1.50;;
70067;SDS011;57425;51.616;6.680;2023-07-22T11:41:39;2.17;;;1.30;;
70067;SDS011;57425;51.616;6.680;2023-07-22T11:44:09;2.42;;;1.50;;
70067;SDS011;57425;51.616;6.680;2023-07-22T11:46:48;1.35;;;0.88;;
70067;SDS011;57425;51.616;6.680;2023-07-22T11:51:56;1.48;;;1.00;;
70067;SDS011;57425;51.616;6.680;2023-07-22T11:54:26;3.53;;;1.20;;
70067;SDS011;57425;51.616;6.680;2023-07-22T11:56:54;3.95;;;1.23;;
70067;SDS011;57425;51.616;6.680;2023-07-22T11:59:33;2.92;;;1.05;;
70067;SDS011;57425;51.616;6.680;2023-07-22T12:02:00;3.10;;;1.33;;
70067;SDS011;57425;51.616;6.680;2023-07-22T12:04:29;3.42;;;1.00;;
70067;SDS011;57425;51.616;6.680;2023-07-22T12:06:56;2.55;;;1.17;;
70067;SDS011;57425;51.616;6.680;2023-07-22T12:09:22;6.47;;;1.83;;
70067;SDS011;57425;51.616;6.680;2023-07-22T12:11:54;2.83;;;1.50;;
70067;SDS011;57425;51.616;6.680;2023-07-22T12:14:22;5.00;;;1.42;;
70067;SDS011;57425;51.616;6.680;2023-07-22T12:16:48;5.00;;;1.30;;
70067;SDS011;57425;51.616;6.680;2023-07-22T12:19:23;2.88;;;1.20;;
70067;SDS011;57425;51.616;6.680;2023-07-22T12:21:50;1.38;;;0.93;;
70067;SDS011;57425;51.616;6.680;2023-07-22T12:24:15;2.53;;;1.20;;
70067;SDS011;57425;51.616;6.680;2023-07-22T12:26:41;3.58;;;1.13;;
70067;SDS011;57425;51.616;6.680;2023-07-22T12:29:07;5.40;;;1.13;;
70067;SDS011;57425;51.616;6.680;2023-07-22T12:31:33;4.25;;;1.30;;
70067;SDS011;57425;51.616;6.680;2023-07-22T12:33:59;3.13;;;1.20;;
70067;SDS011;57425;51.616;6.680;2023-07-22T12:36:25;1.48;;;0.75;;
70067;SDS011;57425;51.616;6.680;2023-07-22T12:38:51;2.20;;;1.30;;
70067;SDS011;57425;51.616;6.680;2023-07-22T12:41:17;3.03;;;0.90;;
70067;SDS011;57425;51.616;6.680;2023-07-22T12:43:42;3.40;;;0.88;;
70067;SDS011;57425;51.616;6.680;2023-07-22T12:46:08;1.40;;;1.10;;
70067;SDS011;57425;51.616;6.680;2023-07-22T12:48:34;1.50;;;1.10;;
70067;SDS011;57425;51.616;6.680;2023-07-22T12:51:00;1.00;;;0.88;;
70067;SDS011;57425;51.616;6.680;2023-07-22T12:53:26;1.65;;;1.10;;
70067;SDS011;57425;51.616;6.680;2023-07-22T12:55:51;2.40;;;0.90;;
70067;SDS011;57425;51.616;6.680;2023-07-22T12:58:17;1.65;;;1.17;;
70067;SDS011;57425;51.616;6.680;2023-07-22T13:00:43;1.58;;;1.00;;
70067;SDS011;57425;51.616;6.680;2023-07-22T13:03:08;1.58;;;0.88;;
70067;SDS011;57425;51.616;6.680;2023-07-22T13:05:35;4.15;;;1.25;;
70067;SDS011;57425;51.616;6.680;2023-07-22T13:08:01;2.45;;;0.80;;
70067;SDS011;57425;51.616;6.680;2023-07-22T13:10:28;3.13;;;1.15;;
70067;SDS011;57425;51.616;6.680;2023-07-22T13:12:54;1.58;;;1.27;;
70067;SDS011;57425;51.616;6.680;2023-07-22T13:15:20;1.55;;;0.95;;
70067;SDS011;57425;51.616;6.680;2023-07-22T13:17:46;5.05;;;1.92;;
70067;SDS011;57425;51.616;6.680;2023-07-22T13:20:11;6.00;;;1.42;;
70067;SDS011;57425;51.616;6.680;2023-07-22T13:22:38;2.65;;;1.20;;
70067;SDS011;57425;51.616;6.680;2023-07-22T13:25:04;5.72;;;1.20;;
70067;SDS011;57425;51.616;6.680;2023-07-22T13:27:31;3.22;;;0.93;;
70067;SDS011;57425;51.616;6.680;2023-07-22T13:29:56;1.83;;;1.42;;
70067;SDS011;57425;51.616;6.680;2023-07-22T13:32:23;1.63;;;0.90;;
70067;SDS011;57425;51.616;6.680;2023-07-22T13:34:49;2.03;;;1.20;;
70067;SDS011;57425;51.616;6.680;2023-07-22T13:37:14;1.77;;;1.05;;
70067;SDS011;57425;51.616;6.680;2023-07-22T13:39:41;1.75;;;0.82;;
70067;SDS011;57425;51.616;6.680;2023-07-22T13:42:07;1.20;;;0.80;;
70067;SDS011;57425;51.616;6.680;2023-07-22T13:44:33;1.30;;;0.95;;
70067;SDS011;57425;51.616;6.680;2023-07-22T13:46:59;1.45;;;0.93;;
70067;SDS011;57425;51.616;6.680;2023-07-22T13:49:25;4.43;;;1.10;;
70067;SDS011;57425;51.616;6.680;2023-07-22T13:51:51;1.55;;;0.70;;
70067;SDS011;57425;51.616;6.680;2023-07-22T13:54:17;1.55;;;0.57;;
70067;SDS011;57425;51.616;6.680;2023-07-22T13:56:44;2.55;;;1.42;;
70067;SDS011;57425;51.616;6.680;2023-07-22T13:59:12;1.73;;;0.98;;
70067;SDS011;57425;51.616;6.680;2023-07-22T14:01:38;3.22;;;1.10;;
70067;SDS011;57425;51.616;6.680;2023-07-22T14:04:04;1.92;;;0.98;;
70067;SDS011;57425;51.616;6.680;2023-07-22T14:06:30;3.83;;;1.33;;
70067;SDS011;57425;51.616;6.680;2023-07-22T14:08:57;2.13;;;1.00;;
70067;SDS011;57425;51.616;6.680;2023-07-22T14:11:23;2.72;;;1.00;;
70067;SDS011;57425;51.616;6.680;2023-07-22T14:13:49;0.77;;;0.47;;
70067;SDS011;57425;51.616;6.680;2023-07-22T14:16:17;1.48;;;0.90;;
70067;SDS011;57425;51.616;6.680;2023-07-22T14:18:43;1.63;;;1.02;;
70067;SDS011;57425;51.616;6.680;2023-07-22T14:21:09;3.50;;;1.05;;
70067;SDS011;57425;51.616;6.680;2023-07-22T14:23:36;2.72;;;1.38;;
70067;SDS011;57425;51.616;6.680;2023-07-22T14:26:02;1.63;;;1.02;;
70067;SDS011;57425;51.616;6.680;2023-07-22T14:28:28;3.13;;;1.40;;
70067;SDS011;57425;51.616;6.680;2023-07-22T14:30:54;4.70;;;1.25;;
70067;SDS011;57425;51.616;6.680;2023-07-22T14:33:20;3.75;;;1.30;;
70067;SDS011;57425;51.616;6.680;2023-07-22T14:35:46;5.32;;;1.25;;
70067;SDS011;57425;51.616;6.680;2023-07-22T14:38:12;1.35;;;0.85;;
70067;SDS011;57425;51.616;6.680;2023-07-22T14:40:38;4.25;;;2.05;;
70067;SDS011;57425;51.616;6.680;2023-07-22T14:43:04;1.85;;;1.13;;
70067;SDS011;57425;51.616;6.680;2023-07-22T14:45:30;1.85;;;1.42;;
70067;SDS011;57425;51.616;6.680;2023-07-22T14:47:56;2.42;;;1.35;;
70067;SDS011;57425;51.616;6.680;2023-07-22T14:50:21;2.08;;;1.13;;
70067;SDS011;57425;51.616;6.680;2023-07-22T14:52:47;1.73;;;1.20;;
70067;SDS011;57425;51.616;6.680;2023-07-22T14:55:13;1.70;;;1.13;;
70067;SDS011;57425;51.616;6.680;2023-07-22T14:57:39;4.80;;;1.05;;
70067;SDS011;57425;51.616;6.680;2023-07-22T15:00:05;2.65;;;1.33;;
70067;SDS011;57425;51.616;6.680;2023-07-22T15:02:32;1.65;;;1.10;;